Time;durP1;ratioP1;P1;durP2;ratioP2;P2;SDS_P1;SDS_P2;PMS_P1;PMS_P2;Temp;Humidity;BMP_temperature;BMP_pressure;BME280_temperature;BME280_humidity;BME280_pressure;Samples;Min_cycle;Max_cycle;Signal;HPM_P1;HPM_P2
2022/03/15 00:00:56;;;;;;;46.60;30.20;;;;;;;-4.54;64.21;99121.00;110201;1247;59690;-66
2022/03/15 00:03:25;;;;;;;54.50;33.10;;;;;;;-4.61;63.00;99118.00;110221;1245;71515;-62
2022/03/15 00:05:56;;;;;;;63.50;37.60;;;;;;;-4.68;59.03;99116.02;110051;1249;68534;-63
2022/03/15 00:08:26;;;;;;;47.70;30.30;;;;;;;-4.73;60.47;99119.86;110079;1248;69452;-62
2022/03/15 00:10:58;;;;;;;42.10;28.60;;;;;;;-4.80;63.94;99119.41;110102;1247;59737;-61
2022/03/15 00:13:30;;;;;;;59.40;35.70;;;;;;;-4.85;64.55;99121.55;110264;1247;59734;-62
2022/03/15 00:16:01;;;;;;;38.50;25.00;;;;;;;-4.90;62.70;99124.70;110132;1247;71457;-62
2022/03/15 00:18:32;;;;;;;54.00;34.30;;;;;;;-4.93;56.97;99119.73;110125;1247;67890;-63
2022/03/15 00:21:04;;;;;;;44.60;28.50;;;;;;;-4.92;56.13;99120.08;110251;1244;68799;-63
2022/03/15 00:23:34;;;;;;;32.40;19.10;;;;;;;-4.92;56.42;99123.81;110052;1248;59741;-64
2022/03/15 00:26:04;;;;;;;41.70;25.90;;;;;;;-4.92;58.73;99124.33;110132;1247;59687;-66
2022/03/15 00:28:36;;;;;;;35.30;23.80;;;;;;;-4.90;63.13;99128.60;110326;1246;71585;-65
2022/03/15 00:31:07;;;;;;;28.10;18.80;;;;;;;-4.92;61.36;99124.33;110452;1244;67779;-63
2022/03/15 00:33:43;;;;;;;24.10;15.70;;;;;;;-4.95;57.29;99124.44;110206;1247;69503;-63
2022/03/15 00:36:15;;;;;;;68.30;37.70;;;;;;;-4.95;60.40;99130.55;110080;1248;59630;-64
2022/03/15 00:38:46;;;;;;;42.80;24.50;;;;;;;-5.01;64.00;99143.39;110201;1247;59719;-64
2022/03/15 00:41:25;;;;;;;63.80;34.30;;;;;;;-5.08;65.62;99151.09;110162;1247;71956;-66
2022/03/15 00:44:00;;;;;;;44.40;27.40;;;;;;;-5.13;63.28;99154.07;110193;1247;68385;-62
2022/03/15 00:46:32;;;;;;;56.00;34.10;;;;;;;-5.16;64.72;99151.14;110257;1247;69389;-62
2022/03/15 00:49:03;;;;;;;51.80;31.20;;;;;;;-5.17;66.56;99146.19;110090;1247;59995;-62
2022/03/15 00:51:34;;;;;;;38.00;24.00;;;;;;;-5.20;65.34;99137.11;110306;1247;59664;-62
2022/03/15 00:54:05;;;;;;;58.70;35.70;;;;;;;-5.24;61.54;99130.77;110173;1247;71522;-61
2022/03/15 00:56:35;;;;;;;47.10;28.80;;;;;;;-5.27;64.77;99132.92;110365;1247;67618;-64
2022/03/15 00:59:09;;;;;;;55.40;32.00;;;;;;;-5.34;65.36;99140.45;110081;1247;69410;-61
2022/03/15 01:01:40;;;;;;;64.50;38.80;;;;;;;-5.41;67.00;99140.64;110214;1247;59683;-62
2022/03/15 01:04:12;;;;;;;56.50;34.10;;;;;;;-5.46;66.02;99129.01;110198;1247;59693;-62
2022/03/15 01:06:42;;;;;;;58.80;35.00;;;;;;;-5.51;63.95;99122.97;110038;1248;71543;-64
2022/03/15 01:09:15;;;;;;;45.00;29.50;;;;;;;-5.53;66.61;99120.05;110326;1245;68033;-64
2022/03/15 01:11:45;;;;;;;;;;;;;;;-5.55;66.25;99119.65;110125;1247;68932;-64
2022/03/15 01:14:16;;;;;;;48.90;30.00;;;;;;;-5.56;67.87;99106.90;110172;1247;59818;-67
2022/03/15 01:16:47;;;;;;;65.70;35.20;;;;;;;-5.59;67.18;99099.71;110272;1247;59739;-64
2022/03/15 01:19:17;;;;;;;43.50;26.50;;;;;;;-5.61;67.72;99102.05;110141;1246;72348;-65
2022/03/15 01:21:52;;;;;;;47.50;29.20;;;;;;;-5.64;67.57;99104.20;110036;1247;67780;-65
2022/03/15 01:24:23;;;;;;;58.00;34.90;;;;;;;-5.67;68.00;99104.66;110440;1247;68592;-66
2022/03/15 01:26:53;;;;;;;;;;;;;;;-5.70;68.17;99108.69;110355;1247;59729;-64
2022/03/15 01:29:24;;;;;;;45.70;27.10;;;;;;;-5.76;68.11;99112.31;110127;1247;59686;-64
2022/03/15 01:31:55;;;;;;;54.70;30.80;;;;;;;-5.79;68.37;99109.18;110249;1247;71514;-66
2022/03/15 01:34:28;;;;;;;46.50;28.80;;;;;;;-5.82;68.22;99109.81;110056;1248;67641;-65
2022/03/15 01:36:58;;;;;;;48.00;30.20;;;;;;;-5.87;67.36;99112.27;110088;1248;69319;-65
2022/03/15 01:39:29;;;;;;;66.50;39.20;;;;;;;-5.95;64.61;99107.88;110175;1247;59694;-65
2022/03/15 01:42:00;;;;;;;37.20;24.50;;;;;;;-6.04;60.47;99106.19;109987;1248;59657;-65
2022/03/15 01:44:33;;;;;;;47.80;32.30;;;;;;;-6.12;65.06;99109.92;110090;1247;71637;-63
2022/03/15 01:47:03;;;;;;;65.10;39.50;;;;;;;-6.20;67.80;99103.83;109935;1247;67151;-63
2022/03/15 01:49:34;;;;;;;55.90;33.80;;;;;;;-6.25;69.26;99102.35;110097;1247;69427;-63
2022/03/15 01:52:05;;;;;;;48.30;30.70;;;;;;;-6.30;69.49;99103.43;110086;1247;59748;-62
2022/03/15 01:54:36;;;;;;;48.70;27.10;;;;;;;-6.33;69.84;99106.92;110459;1247;59784;-64
2022/03/15 01:57:08;;;;;;;33.30;20.20;;;;;;;-6.37;69.46;99110.77;110130;1247;70789;-64
2022/03/15 01:59:40;;;;;;;54.30;33.40;;;;;;;-6.39;69.79;99116.46;110170;1247;67889;-64
2022/03/15 02:02:10;;;;;;;;;;;;;;;-6.42;69.33;99118.80;110127;1247;69423;-64
2022/03/15 02:04:40;;;;;;;54.40;30.00;;;;;;;-6.46;69.33;99116.84;110419;1246;59733;-64
2022/03/15 02:07:12;;;;;;;;;;;;;;;-6.48;70.28;99117.13;110108;1247;59770;-64
2022/03/15 02:09:42;;;;;;;36.70;17.60;;;;;;;-6.50;69.58;99115.05;110181;1247;71479;-65
2022/03/15 02:12:13;;;;;;;53.20;27.90;;;;;;;-6.51;63.61;99111.15;110086;1247;68627;-66
2022/03/15 02:14:43;;;;;;;41.10;25.90;;;;;;;-6.47;62.09;99111.73;110054;1247;68609;-65
2022/03/15 02:17:14;;;;;;;48.70;28.10;;;;;;;-6.42;62.54;99106.40;110079;1247;60137;-62
2022/03/15 02:19:45;;;;;;;54.20;30.20;;;;;;;-6.38;63.18;99097.51;110133;1248;59755;-63
2022/03/15 02:22:15;;;;;;;46.70;26.60;;;;;;;-6.32;63.93;99095.59;110102;1247;71716;-62
2022/03/15 02:24:46;;;;;;;66.30;38.10;;;;;;;-6.27;67.13;99096.88;110122;1247;67780;-63
2022/03/15 02:27:17;;;;;;;57.20;32.20;;;;;;;-6.24;68.62;99094.25;110164;1245;69488;-64
2022/03/15 02:29:47;;;;;;;64.60;38.60;;;;;;;-6.23;66.68;99099.02;110370;1245;59665;-65
2022/03/15 02:32:18;;;;;;;61.80;36.60;;;;;;;-6.25;69.28;99101.17;110245;1247;59689;-65
2022/03/15 02:34:48;;;;;;;65.70;38.80;;;;;;;-6.29;69.30;99089.73;110153;1247;70695;-65
2022/03/15 02:37:18;;;;;;;63.70;38.40;;;;;;;-6.29;67.27;99081.90;110152;1247;68167;-64
2022/03/15 02:39:48;;;;;;;50.10;29.60;;;;;;;-6.32;68.60;99077.10;110133;1247;69260;-65
2022/03/15 02:42:19;;;;;;;62.00;36.40;;;;;;;-6.34;70.64;99075.34;110374;1247;59741;-62
2022/03/15 02:44:48;;;;;;;59.20;36.10;;;;;;;-6.36;70.78;99080.75;110323;1247;59663;-61
2022/03/15 02:47:19;;;;;;;64.40;36.50;;;;;;;-6.39;70.80;99078.13;110152;1247;70783;-62
2022/03/15 02:49:50;;;;;;;61.60;33.90;;;;;;;-6.40;71.59;99073.70;110384;1247;68551;-63
2022/03/15 02:52:20;;;;;;;45.90;27.90;;;;;;;-6.39;71.87;99071.52;110268;1247;69387;-64
2022/03/15 02:54:51;;;;;;;55.70;33.80;;;;;;;-6.41;71.37;99067.77;109377;1247;971331;-64
2022/03/15 02:57:23;;;;;;;54.90;34.90;;;;;;;-6.42;71.53;99065.01;110082;1247;59686;-61
2022/03/15 02:59:55;;;;;;;34.80;23.50;;;;;;;-6.43;71.75;99071.77;110183;1247;71058;-61
2022/03/15 03:02:27;;;;;;;29.50;18.20;;;;;;;-6.46;70.73;99077.65;110052;1248;68664;-62
2022/03/15 03:04:57;;;;;;;59.70;35.70;;;;;;;-6.50;71.64;99081.81;110290;1247;69398;-64
2022/03/15 03:07:27;;;;;;;62.80;38.60;;;;;;;-6.54;71.07;99076.95;110394;1246;59743;-66
2022/03/15 03:09:58;;;;;;;57.20;34.10;;;;;;;-6.58;69.20;99076.54;110143;1246;59688;-65
2022/03/15 03:12:30;;;;;;;45.60;27.00;;;;;;;-6.58;71.19;99088.58;110281;1246;71617;-65
2022/03/15 03:15:01;;;;;;;51.80;33.10;;;;;;;-6.58;71.13;99099.95;110174;1247;67006;-67
2022/03/15 03:17:31;;;;;;;56.50;33.60;;;;;;;-6.64;69.06;99089.63;110369;1246;69265;-65
2022/03/15 03:20:05;;;;;;;40.70;26.40;;;;;;;-6.69;66.96;99088.69;110386;1246;59741;-65
2022/03/15 03:22:37;;;;;;;28.80;17.50;;;;;;;-6.72;68.31;99095.05;110057;1247;59680;-61
2022/03/15 03:25:08;;;;;;;42.20;27.10;;;;;;;-6.77;69.87;99097.51;110042;1248;71524;-62
2022/03/15 03:27:38;;;;;;;43.90;26.10;;;;;;;-6.87;69.74;99093.20;110314;1246;68472;-64
2022/03/15 03:30:09;;;;;;;37.50;23.80;;;;;;;-6.94;70.51;99098.80;110401;1247;68459;-66
2022/03/15 03:32:41;;;;;;;57.70;34.20;;;;;;;-6.97;70.81;99104.64;110280;1247;59771;-64
2022/03/15 03:35:12;;;;;;;40.70;23.20;;;;;;;-7.02;71.54;99104.70;110252;1247;59655;-64
2022/03/15 03:37:42;;;;;;;43.10;24.40;;;;;;;-7.06;69.49;99103.27;110289;1247;71783;-65
2022/03/15 03:40:12;;;;;;;35.80;21.40;;;;;;;-7.07;68.61;99111.52;110140;1247;68409;-62
2022/03/15 03:42:44;;;;;;;44.40;25.40;;;;;;;-7.09;68.48;99113.69;110325;1247;68657;-62
2022/03/15 03:45:14;;;;;;;30.80;19.40;;;;;;;-7.09;65.81;99112.83;110269;1247;59747;-64
2022/03/15 03:47:43;;;;;;;35.70;21.80;;;;;;;-7.10;66.84;99120.11;110355;1246;59670;-63
2022/03/15 03:50:13;;;;;;;34.50;21.00;;;;;;;-7.10;67.20;99121.96;110091;1247;70728;-64
2022/03/15 03:52:42;;;;;;;41.00;23.50;;;;;;;-7.11;66.24;99117.19;110299;1247;68608;-64
2022/03/15 03:55:12;;;;;;;39.10;23.60;;;;;;;-7.12;66.38;99121.07;110170;1247;68609;-61
2022/03/15 03:57:43;;;;;;;56.80;34.00;;;;;;;-7.10;71.41;99121.12;110022;1247;59709;-64
2022/03/15 04:00:14;;;;;;;45.30;26.90;;;;;;;-7.08;72.13;99119.27;110090;1247;59736;-65
2022/03/15 04:02:43;;;;;;;54.70;31.50;;;;;;;-7.07;72.38;99119.17;110311;1247;70821;-64
2022/03/15 04:05:15;;;;;;;37.60;21.70;;;;;;;-7.04;69.74;99116.17;110141;1247;68035;-64
2022/03/15 04:07:45;;;;;;;35.80;18.70;;;;;;;-7.03;67.54;99109.92;110144;1247;69401;-62
2022/03/15 04:10:16;;;;;;;34.30;21.50;;;;;;;-7.01;65.85;99109.30;110201;1246;59747;-62
2022/03/15 04:12:46;;;;;;;26.80;14.10;;;;;;;-6.98;69.58;99101.73;110198;1247;59671;-61
2022/03/15 04:15:16;;;;;;;48.00;28.80;;;;;;;-6.98;68.82;99104.77;110128;1247;70604;-61
2022/03/15 04:17:46;;;;;;;33.80;20.30;;;;;;;-7.01;71.55;99113.55;110180;1245;67917;-63
2022/03/15 04:20:16;;;;;;;;;;;;;;;-7.03;70.79;99126.69;110098;1247;68278;-63
2022/03/15 04:22:47;;;;;;;52.30;29.40;;;;;;;-7.04;72.21;99136.01;110131;1247;59689;-62
2022/03/15 04:25:17;;;;;;;61.70;34.50;;;;;;;-7.03;73.23;99130.27;110164;1247;59720;-65
2022/03/15 04:27:47;;;;;;;40.60;24.50;;;;;;;-7.03;72.90;99131.29;110301;1246;71508;-64
2022/03/15 04:30:18;;;;;;;42.80;26.20;;;;;;;-7.05;71.02;99136.33;110133;1247;67673;-66
2022/03/15 04:32:48;;;;;;;49.30;28.10;;;;;;;-6.87;75.68;99141.17;110089;1247;68627;-64
2022/03/15 04:35:26;;;;;;;59.30;32.80;;;;;;;-6.65;74.11;99134.73;110040;1247;59730;-60
2022/03/15 04:38:04;;;;;;;53.20;31.20;;;;;;;-6.62;72.01;99135.65;110289;1247;59696;-64
2022/03/15 04:40:34;;;;;;;56.80;32.70;;;;;;;-6.66;68.91;99130.63;110479;1244;71504;-63
2022/03/15 04:43:04;;;;;;;67.10;39.00;;;;;;;-6.68;70.97;99138.05;110152;1245;68436;-60
2022/03/15 04:45:35;;;;;;;56.10;30.80;;;;;;;-6.57;71.90;99141.02;110138;1247;69375;-60
2022/03/15 04:48:05;;;;;;;67.40;38.50;;;;;;;-6.53;71.71;99137.21;110221;1247;59747;-63
2022/03/15 04:50:34;;;;;;;59.50;37.30;;;;;;;-6.51;71.17;99137.78;110239;1247;59743;-61
2022/03/15 04:53:05;;;;;;;49.00;29.90;;;;;;;-6.54;71.16;99132.59;110215;1246;71545;-61
2022/03/15 04:55:35;;;;;;;61.90;34.70;;;;;;;-6.58;71.21;99133.86;110090;1247;68631;-61
2022/03/15 04:58:05;;;;;;;59.30;35.20;;;;;;;-6.61;71.45;99124.30;110107;1247;69255;-61
2022/03/15 05:00:35;;;;;;;41.30;22.50;;;;;;;-6.60;71.26;99122.30;110088;1247;59745;-59
2022/03/15 05:03:08;;;;;;;51.80;33.20;;;;;;;-6.56;69.96;99123.73;110197;1247;59712;-67
2022/03/15 05:05:39;;;;;;;58.80;34.00;;;;;;;-6.50;70.99;99123.36;110185;1247;71894;-64
2022/03/15 05:08:13;;;;;;;43.50;24.10;;;;;;;-6.38;71.08;99115.14;110141;1247;68141;-66
2022/03/15 05:11:06;;;;;;;48.00;31.20;;;;;;;-6.17;69.66;99110.66;110288;1247;68637;-65
2022/03/15 05:13:41;;;;;;;48.10;25.80;;;;;;;-5.90;68.51;99112.05;110199;1247;60060;-61
2022/03/15 05:16:17;;;;;;;40.90;26.40;;;;;;;-5.65;68.91;99114.20;110107;1247;59716;-63
2022/03/15 05:18:54;;;;;;;43.10;27.20;;;;;;;-5.42;68.93;99114.29;110274;1247;71055;-64
2022/03/15 05:21:27;;;;;;;53.70;34.00;;;;;;;-5.20;68.26;99116.73;110181;1246;68748;-66
2022/03/15 05:23:57;;;;;;;38.30;22.80;;;;;;;-4.93;67.87;99117.52;110267;1247;68759;-64
2022/03/15 05:26:26;;;;;;;42.00;25.20;;;;;;;-4.56;66.94;99107.69;110226;1247;59661;-65
2022/03/15 05:28:56;;;;;;;55.50;32.30;;;;;;;-4.29;65.55;99108.58;110253;1246;59655;-65
2022/03/15 05:31:28;;;;;;;76.60;44.30;;;;;;;-4.11;64.99;99113.41;110092;1247;71438;-66
2022/03/15 05:34:00;;;;;;;78.90;44.70;;;;;;;-3.95;64.48;99111.39;110109;1246;68862;-65
2022/03/15 05:36:34;;;;;;;59.70;38.20;;;;;;;-3.99;63.98;99111.00;110213;1247;68360;-65
2022/03/15 05:39:03;;;;;;;61.10;36.10;;;;;;;-3.85;63.62;99116.11;110228;1246;59773;-63
2022/03/15 05:41:35;;;;;;;54.60;34.40;;;;;;;-3.63;62.44;99116.20;110161;1247;59736;-65
2022/03/15 05:44:07;;;;;;;58.00;34.90;;;;;;;-3.38;61.79;99118.50;110042;1247;71557;-63
2022/03/15 05:46:36;;;;;;;61.20;37.60;;;;;;;-3.11;61.32;99113.47;110084;1246;68104;-64
2022/03/15 05:49:06;;;;;;;63.90;40.70;;;;;;;-2.81;61.05;99113.90;110307;1246;69665;-65
2022/03/15 05:51:35;;;;;;;79.90;51.10;;;;;;;-2.35;61.74;99113.69;110435;1247;59766;-68
2022/03/15 05:54:08;;;;;;;90.00;54.50;;;;;;;-1.97;59.89;99115.60;110425;1245;59651;-62
2022/03/15 05:56:39;;;;;;;78.10;48.60;;;;;;;-1.81;58.09;99121.13;110107;1247;71601;-61
2022/03/15 05:59:08;;;;;;;73.50;49.60;;;;;;;-1.83;57.01;99126.77;110285;1246;68941;-61
2022/03/15 06:01:37;;;;;;;81.70;50.20;;;;;;;-1.91;57.29;99129.63;110369;1244;69442;-64
2022/03/15 06:04:07;;;;;;;67.70;43.50;;;;;;;-1.75;57.29;99135.17;110184;1247;59761;-64
2022/03/15 06:06:37;;;;;;;62.10;38.30;;;;;;;-1.58;57.56;99136.77;110099;1247;59748;-64
2022/03/15 06:09:07;;;;;;;67.10;43.30;;;;;;;-1.33;56.82;99129.66;110188;1247;71093;-66
2022/03/15 06:11:39;;;;;;;79.90;51.20;;;;;;;-1.01;55.96;99130.04;110196;1247;68478;-65
2022/03/15 06:14:08;;;;;;;73.80;46.10;;;;;;;-0.87;55.56;99136.21;110188;1245;69404;-65
2022/03/15 06:16:38;;;;;;;70.70;45.00;;;;;;;-0.74;55.37;99132.11;110110;1247;59804;-65
2022/03/15 06:19:07;;;;;;;60.70;38.60;;;;;;;-0.40;55.61;99132.60;110081;1247;59739;-67
2022/03/15 06:21:37;;;;;;;63.10;40.30;;;;;;;-0.10;53.68;99132.02;110088;1247;71591;-62
2022/03/15 06:24:10;;;;;;;56.00;34.60;;;;;;;0.27;54.07;99124.00;110276;1247;67689;-63
2022/03/15 06:26:43;;;;;;;60.80;41.00;;;;;;;0.80;52.54;99118.58;110111;1247;68596;-64
2022/03/15 06:29:13;;;;;;;62.60;39.00;;;;;;;1.12;50.90;99120.42;110091;1247;59773;-62
2022/03/15 06:31:43;;;;;;;50.20;34.80;;;;;;;1.33;49.87;99123.70;110191;1247;59670;-61
2022/03/15 06:34:12;;;;;;;60.40;39.20;;;;;;;1.25;50.30;99131.64;110198;1247;70116;-63
2022/03/15 06:36:41;;;;;;;48.90;35.00;;;;;;;1.30;49.95;99131.42;110163;1247;69154;-66
2022/03/15 06:39:10;;;;;;;53.00;37.40;;;;;;;1.26;50.04;99129.08;110120;1247;69236;-67
2022/03/15 06:41:41;;;;;;;50.70;36.10;;;;;;;1.45;49.08;99133.37;110104;1247;59719;-63
2022/03/15 06:44:11;;;;;;;53.70;35.70;;;;;;;1.48;48.50;99135.75;110062;1247;59685;-69
2022/03/15 06:46:41;;;;;;;45.30;30.00;;;;;;;1.65;48.23;99135.77;110198;1247;71694;-66
2022/03/15 06:49:10;;;;;;;61.60;39.90;;;;;;;1.82;48.38;99131.30;110319;1247;67712;-64
2022/03/15 06:51:40;;;;;;;55.20;38.20;;;;;;;2.08;47.57;99127.92;110045;1247;67660;-64
2022/03/15 06:54:09;;;;;;;58.00;37.90;;;;;;;2.36;48.81;99129.48;110135;1247;59773;-64
2022/03/15 06:56:40;;;;;;;47.80;35.80;;;;;;;2.46;46.42;99127.98;110469;1247;60086;-63
2022/03/15 06:59:09;;;;;;;49.60;35.00;;;;;;;2.63;45.22;99123.63;110318;1246;72187;-65
2022/03/15 07:01:39;;;;;;;58.90;40.10;;;;;;;2.62;45.28;99129.50;110354;1246;68585;-64
2022/03/15 07:04:08;;;;;;;45.00;30.70;;;;;;;2.69;45.45;99117.01;110438;1245;69371;-61
2022/03/15 07:06:37;;;;;;;52.90;35.90;;;;;;;2.64;45.05;99115.70;110121;1247;59727;-61
2022/03/15 07:09:07;;;;;;;52.30;33.50;;;;;;;2.73;45.12;99121.77;110099;1247;59669;-65
2022/03/15 07:11:38;;;;;;;49.50;32.00;;;;;;;2.85;44.03;99126.77;110182;1246;71507;-67
2022/03/15 07:14:07;;;;;;;48.20;31.70;;;;;;;2.88;43.43;99129.99;110130;1247;68635;-65
2022/03/15 07:16:36;;;;;;;44.50;29.60;;;;;;;2.93;43.40;99130.45;110136;1246;68823;-66
2022/03/15 07:19:06;;;;;;;48.60;33.10;;;;;;;2.90;44.36;99132.03;110453;1245;59732;-65
2022/03/15 07:21:35;;;;;;;45.50;32.00;;;;;;;2.86;44.36;99132.09;110391;1245;59653;-65
2022/03/15 07:24:05;;;;;;;43.80;29.80;;;;;;;3.01;43.48;99145.30;110183;1247;71623;-66
2022/03/15 07:26:35;;;;;;;45.40;32.10;;;;;;;3.06;43.77;99140.41;110322;1246;68051;-68
2022/03/15 07:29:04;;;;;;;43.90;32.70;;;;;;;3.20;43.73;99128.81;110480;1246;69345;-65
2022/03/15 07:31:33;;;;;;;42.10;31.10;;;;;;;3.14;43.82;99135.98;110392;1245;59696;-66
2022/03/15 07:34:03;;;;;;;42.00;29.10;;;;;;;2.87;44.28;99145.68;110347;1246;59715;-64
2022/03/15 07:36:35;;;;;;;41.50;30.10;;;;;;;3.09;44.60;99133.63;110380;1246;70768;-62
2022/03/15 07:39:05;;;;;;;46.10;33.40;;;;;;;3.41;43.53;99135.70;110127;1247;67866;-62
2022/03/15 07:41:37;;;;;;;49.70;32.60;;;;;;;3.40;42.85;99143.83;110112;1247;69443;-67
2022/03/15 07:44:08;;;;;;;46.10;31.40;;;;;;;3.37;43.05;99139.75;110094;1247;59763;-65
2022/03/15 07:46:40;;;;;;;44.00;28.90;;;;;;;3.50;42.46;99138.48;110419;1245;60086;-66
2022/03/15 07:49:10;;;;;;;43.70;30.80;;;;;;;3.54;42.46;99138.60;110379;1244;69834;-66
2022/03/15 07:51:40;;;;;;;43.50;31.90;;;;;;;3.60;41.90;99136.44;110391;1245;67658;-67
2022/03/15 07:54:09;;;;;;;42.50;27.80;;;;;;;3.54;41.61;99134.46;110115;1245;69085;-66
2022/03/15 07:56:41;;;;;;;39.80;28.10;;;;;;;3.57;41.89;99138.04;110401;1246;59738;-65
2022/03/15 07:59:10;;;;;;;43.50;29.10;;;;;;;3.53;41.47;99138.27;110446;1244;59664;-66
2022/03/15 08:01:40;;;;;;;49.80;34.50;;;;;;;3.71;41.84;99142.79;110316;1245;70570;-67
2022/03/15 08:04:09;;;;;;;48.60;30.20;;;;;;;3.83;41.47;99138.95;110413;1245;67816;-61
2022/03/15 08:06:39;;;;;;;40.40;27.70;;;;;;;3.85;40.81;99132.19;110118;1247;68722;-62
2022/03/15 08:09:09;;;;;;;50.20;33.10;;;;;;;3.91;40.87;99135.01;110381;1244;59862;-61
2022/03/15 08:11:40;;;;;;;51.10;33.70;;;;;;;4.13;40.60;99145.11;110393;1244;59605;-64
2022/03/15 08:14:11;;;;;;;50.70;33.70;;;;;;;4.07;39.79;99139.36;110435;1245;70712;-64
2022/03/15 08:16:40;;;;;;;54.30;36.00;;;;;;;4.00;39.65;99144.67;110132;1244;67853;-66
2022/03/15 08:19:12;;;;;;;;;;;;;;;3.96;40.00;99145.44;110192;1246;68630;-66
2022/03/15 08:21:41;;;;;;;51.30;34.30;;;;;;;4.00;39.61;99140.36;110201;1247;59714;-66
2022/03/15 08:24:14;;;;;;;52.50;33.70;;;;;;;4.05;39.48;99136.98;110202;1246;59754;-66
2022/03/15 08:26:43;;;;;;;56.30;35.10;;;;;;;4.18;39.74;99137.08;110075;1247;71601;-65
2022/03/15 08:29:12;;;;;;;54.50;36.00;;;;;;;4.40;39.58;99138.73;110087;1247;68566;-67
2022/03/15 08:31:42;;;;;;;51.60;35.80;;;;;;;4.55;39.14;99130.27;110130;1246;69786;-62
2022/03/15 08:34:12;;;;;;;51.30;36.40;;;;;;;4.61;39.03;99123.59;110440;1244;59750;-65
2022/03/15 08:36:44;;;;;;;51.30;36.00;;;;;;;4.60;38.25;99132.41;110439;1247;59739;-62
2022/03/15 08:39:14;;;;;;;57.70;36.90;;;;;;;4.41;38.55;99142.66;110409;1247;71535;-62
2022/03/15 08:41:45;;;;;;;53.30;37.50;;;;;;;4.38;38.70;99148.42;110419;1244;69303;-63
2022/03/15 08:44:14;;;;;;;55.50;38.60;;;;;;;4.42;39.71;99142.48;110408;1244;68417;-61
2022/03/15 08:46:43;;;;;;;57.20;41.30;;;;;;;4.50;39.50;99136.61;110332;1245;59662;-61
2022/03/15 08:49:12;;;;;;;59.00;42.20;;;;;;;4.47;39.84;99139.43;110418;1245;59682;-67
2022/03/15 08:51:42;;;;;;;65.90;45.70;;;;;;;4.31;39.17;99137.87;110412;1245;72182;-66
2022/03/15 08:54:12;;;;;;;63.50;45.70;;;;;;;4.30;39.66;99132.88;110444;1244;68430;-65
2022/03/15 08:56:42;;;;;;;67.30;44.80;;;;;;;4.10;39.84;99131.71;110426;1244;68637;-65
2022/03/15 08:59:15;;;;;;;64.60;40.20;;;;;;;4.05;39.89;99138.88;110124;1247;59749;-62
2022/03/15 09:01:44;;;;;;;66.50;41.50;;;;;;;4.09;40.49;99136.23;110456;1244;59664;-65
2022/03/15 09:04:14;;;;;;;66.10;45.50;;;;;;;4.22;40.78;99131.14;110165;1247;71253;-66
2022/03/15 09:06:43;;;;;;;69.20;45.70;;;;;;;4.33;40.27;99134.20;110467;1244;67933;-65
2022/03/15 09:09:13;;;;;;;72.40;46.10;;;;;;;4.36;40.23;99132.77;110198;1247;67693;-62
2022/03/15 09:11:42;;;;;;;71.80;49.50;;;;;;;4.39;40.08;99136.83;110080;1246;59738;-62
2022/03/15 09:14:14;;;;;;;67.90;47.80;;;;;;;4.46;40.07;99140.34;110365;1246;59744;-61
2022/03/15 09:16:43;;;;;;;61.40;40.30;;;;;;;4.66;39.64;99132.30;110331;1247;72154;-61
2022/03/15 09:19:13;;;;;;;66.30;45.30;;;;;;;4.95;38.83;99120.75;110454;1244;68603;-65
2022/03/15 09:21:43;;;;;;;61.00;40.70;;;;;;;5.23;38.41;99116.65;110427;1244;69022;-66
2022/03/15 09:24:13;;;;;;;;;;;;;;;5.41;37.62;99116.58;110438;1245;59728;-67
2022/03/15 09:26:43;;;;;;;57.60;38.40;;;;;;;5.52;37.10;99111.44;110259;1244;59733;-66
2022/03/15 09:29:12;;;;;;;63.90;44.50;;;;;;;5.62;37.01;99099.23;110435;1245;70864;-68
2022/03/15 09:31:42;;;;;;;62.40;43.70;;;;;;;5.82;36.27;99100.98;110160;1247;66846;-67
2022/03/15 09:34:12;;;;;;;66.30;44.10;;;;;;;5.82;36.06;99096.14;110352;1245;68723;-65
2022/03/15 09:36:41;;;;;;;67.00;42.80;;;;;;;5.86;35.99;99093.10;110425;1244;59655;-66
2022/03/15 09:39:11;;;;;;;64.60;41.80;;;;;;;6.13;35.64;99087.70;110309;1244;59759;-67
2022/03/15 09:41:43;;;;;;;58.90;39.90;;;;;;;6.31;34.85;99089.08;110399;1245;71564;-66
2022/03/15 09:44:12;;;;;;;49.00;32.70;;;;;;;6.57;34.13;99084.16;110084;1247;68639;-66
2022/03/15 09:46:51;;;;;;;38.90;29.10;;;;;;;6.76;32.42;99084.81;110032;1247;68755;-65
2022/03/15 09:49:26;;;;;;;41.30;31.00;;;;;;;6.70;30.84;99078.57;110437;1245;59749;-68
2022/03/15 09:51:57;;;;;;;41.10;29.90;;;;;;;6.99;31.45;99075.75;110143;1247;60047;-65
2022/03/15 09:54:30;;;;;;;47.90;34.40;;;;;;;7.34;31.54;99073.40;110322;1244;71559;-62
2022/03/15 09:56:59;;;;;;;45.10;30.70;;;;;;;7.49;31.30;99066.30;110373;1244;68641;-63
2022/03/15 09:59:29;;;;;;;37.60;26.20;;;;;;;7.92;30.67;99065.52;110386;1245;69433;-62
2022/03/15 10:01:59;;;;;;;;;;;;;;;8.04;29.63;99060.54;110415;1244;59720;-62
2022/03/15 10:04:29;;;;;;;47.60;33.30;;;;;;;8.29;29.50;99052.52;110415;1244;59746;-65
2022/03/15 10:07:00;;;;;;;46.30;34.00;;;;;;;8.38;29.60;99052.73;110074;1247;70970;-66
2022/03/15 10:09:29;;;;;;;48.20;33.20;;;;;;;8.78;29.13;99050.31;110394;1244;67736;-66
2022/03/15 10:12:00;;;;;;;;;;;;;;;8.89;28.55;99050.23;110402;1244;69362;-65
2022/03/15 10:14:41;;;;;;;44.60;32.00;;;;;;;9.24;28.84;99047.92;110385;1244;59773;-65
2022/03/15 10:17:14;;;;;;;43.20;31.70;;;;;;;9.87;28.62;99041.92;110398;1244;59725;-64
2022/03/15 10:19:51;;;;;;;46.90;33.90;;;;;;;10.37;27.62;99033.79;110340;1244;70762;-66
2022/03/15 10:22:25;;;;;;;42.20;33.40;;;;;;;10.34;26.73;99027.29;110388;1244;68748;-64
2022/03/15 10:24:56;;;;;;;46.40;33.60;;;;;;;10.66;26.89;99023.71;110151;1245;69296;-66
2022/03/15 10:27:25;;;;;;;49.20;33.60;;;;;;;10.85;26.67;99019.48;110214;1247;59744;-65
2022/03/15 10:29:55;;;;;;;43.80;33.40;;;;;;;10.96;26.02;99013.88;110292;1244;59694;-62
2022/03/15 10:32:28;;;;;;;48.60;34.20;;;;;;;10.84;25.90;99006.08;110121;1247;71946;-62
2022/03/15 10:35:11;;;;;;;39.10;30.20;;;;;;;11.17;25.69;99005.17;110101;1244;67932;-61
2022/03/15 10:37:41;;;;;;;44.90;32.50;;;;;;;11.37;24.94;98992.10;110108;1245;69423;-64
2022/03/15 10:40:11;;;;;;;45.50;32.70;;;;;;;11.94;24.81;98983.09;110120;1247;59747;-60
2022/03/15 10:42:42;;;;;;;38.60;31.60;;;;;;;12.12;24.47;98977.76;110431;1244;59715;-63
2022/03/15 10:45:17;;;;;;;39.40;32.00;;;;;;;12.16;24.40;98976.27;110105;1246;71630;-61
2022/03/15 10:47:53;;;;;;;37.60;30.80;;;;;;;12.44;23.75;98968.61;110363;1244;67791;-61
2022/03/15 10:50:24;;;;;;;42.00;31.70;;;;;;;12.51;23.40;98969.44;110315;1244;69113;-62
2022/03/15 10:52:53;;;;;;;43.20;33.10;;;;;;;12.54;23.08;98965.77;110178;1244;59757;-63
2022/03/15 10:55:28;;;;;;;36.60;30.70;;;;;;;12.67;23.22;98960.70;110393;1245;59719;-62
2022/03/15 10:58:00;;;;;;;38.80;30.40;;;;;;;12.96;22.66;98955.52;110371;1244;70577;-64
2022/03/15 11:00:31;;;;;;;41.00;30.50;;;;;;;12.41;22.74;98953.09;110160;1245;67925;-64
2022/03/15 11:03:00;;;;;;;41.90;32.90;;;;;;;12.62;22.92;98948.38;110131;1247;67647;-63
2022/03/15 11:05:33;;;;;;;37.80;29.30;;;;;;;12.90;22.98;98942.56;110339;1244;60077;-67
2022/03/15 11:08:13;;;;;;;42.00;33.70;;;;;;;13.01;22.77;98941.56;110339;1245;59687;-65
2022/03/15 11:10:47;;;;;;;44.70;34.50;;;;;;;12.76;22.57;98939.19;110376;1245;71807;-66
2022/03/15 11:13:17;;;;;;;37.50;29.30;;;;;;;12.81;23.13;98933.48;110387;1244;68626;-66
2022/03/15 11:15:51;;;;;;;33.50;25.90;;;;;;;12.63;22.43;98926.10;110371;1244;69432;-66
2022/03/15 11:18:20;;;;;;;34.20;27.00;;;;;;;12.60;22.99;98927.33;110316;1245;59718;-66
2022/03/15 11:20:51;;;;;;;43.70;34.70;;;;;;;12.82;22.20;98926.57;110315;1245;59619;-67
2022/03/15 11:23:23;;;;;;;41.20;31.70;;;;;;;13.00;22.51;98919.27;110407;1244;70732;-68
2022/03/15 11:26:02;;;;;;;36.30;31.20;;;;;;;13.06;22.12;98920.13;110314;1245;68169;-66
2022/03/15 11:28:34;;;;;;;34.40;26.80;;;;;;;12.22;22.70;98910.08;110397;1244;68538;-66
2022/03/15 11:31:03;;;;;;;36.20;29.60;;;;;;;12.14;23.12;98905.10;110128;1244;59684;-67